Bellview, New Mexico
Current Conditions -  °F | °C
As of 11:55 AM on Thursday 30 Oct 2014 (Local Time) from KCVN Reporting Station
Clear Clear  
Wind Chill: 70°   Ceiling: Unl
Heat Index: 70°   Visibility: 10mi
Dew Point: 28°   Wind: 25mph
Humidity: 21%   Direction: 30°NNE
Pressure: 30.31"   Gusts: 30mph
Location:  34.8066°N, 103.126°W
Report Text: KCVN 301755Z AUTO 03022G26KT 10SM CLR 21/M02 A3031 RMK AO1 10210 20070 52017
Loading
Personal Weather Stations






























Interactive Weather Map
Tropical Storm Tracking
New forecast layout! Learn more

10-Day Weather Forecast

Advertisements
Track Severe Weather on mobile